Time;durP1;ratioP1;P1;durP2;ratioP2;P2;SDS_P1;SDS_P2;PMS_P1;PMS_P2;Temp;Humidity;BMP_temperature;BMP_pressure;BME280_temperature;BME280_humidity;BME280_pressure;Samples;Min_cycle;Max_cycle;Signal;HPM_P1;HPM_P2
2023/09/06 00:04:26;;;;;;;9.60;4.90;;;;;;;;;;12742265;23;20000;-77
2023/09/06 00:09:26;;;;;;;10.17;4.50;;;;;;;;;;12742281;23;20053;-76
2023/09/06 00:14:29;;;;;;;7.55;5.20;;;;;;;;;;12696230;23;20132;-75
2023/09/06 00:19:29;;;;;;;6.50;4.78;;;;;;;;;;12728014;23;20000;-76
2023/09/06 00:24:31;;;;;;;11.65;5.18;;;;;;;;;;12746212;23;20118;-76
2023/09/06 00:29:32;;;;;;;5.15;4.63;;;;;;;;;;12747298;23;20326;-77
2023/09/06 00:34:33;;;;;;;10.57;4.78;;;;;;;;;;12746485;23;20268;-75
2023/09/06 00:39:33;;;;;;;9.00;5.25;;;;;;;;;;12746748;23;19992;-76
2023/09/06 00:44:34;;;;;;;9.43;4.85;;;;;;;;;;12748891;23;19986;-77
2023/09/06 00:49:34;;;;;;;6.70;5.13;;;;;;;;;;12747080;23;19981;-77
2023/09/06 00:54:34;;;;;;;11.25;5.65;;;;;;;;;;12745907;23;19989;-68
2023/09/06 00:59:35;;;;;;;8.60;4.73;;;;;;;;;;12741433;23;19989;-68
2023/09/06 01:04:37;;;;;;;9.73;4.68;;;;;;;;;;12738680;23;20227;-68
2023/09/06 01:09:37;;;;;;;6.03;5.00;;;;;;;;;;12730780;23;20001;-69
2023/09/06 01:14:40;;;;;;;7.60;5.22;;;;;;;;;;12739153;23;19996;-68
2023/09/06 01:19:44;;;;;;;9.77;5.53;;;;;;;;;;12722312;23;20204;-68
2023/09/06 01:24:45;;;;;;;8.50;5.10;;;;;;;;;;12737606;23;20105;-70
2023/09/06 01:29:46;;;;;;;7.07;4.57;;;;;;;;;;12738632;23;20056;-72
2023/09/06 01:34:46;;;;;;;13.63;6.17;;;;;;;;;;12737681;23;20017;-72
2023/09/06 01:39:46;;;;;;;6.35;5.07;;;;;;;;;;12738094;23;20006;-72
2023/09/06 01:44:47;;;;;;;7.82;4.82;;;;;;;;;;12738169;23;20021;-72
2023/09/06 01:49:47;;;;;;;7.43;5.00;;;;;;;;;;12738365;23;19997;-74
2023/09/06 01:54:47;;;;;;;7.30;5.53;;;;;;;;;;12737092;23;20286;-74
2023/09/06 01:59:50;;;;;;;10.95;5.68;;;;;;;;;;12738307;23;20035;-73
2023/09/06 02:04:50;;;;;;;6.25;5.00;;;;;;;;;;12738221;23;20287;-72
2023/09/06 02:09:51;;;;;;;8.50;4.93;;;;;;;;;;12714775;23;20024;-72
2023/09/06 02:14:52;;;;;;;9.88;5.88;;;;;;;;;;12737547;23;20256;-73
2023/09/06 02:19:52;;;;;;;7.75;4.88;;;;;;;;;;12718985;23;20013;-72
2023/09/06 02:24:53;;;;;;;6.35;5.07;;;;;;;;;;12736955;23;20013;-72
2023/09/06 02:29:53;;;;;;;9.07;5.75;;;;;;;;;;12739542;23;20044;-72
2023/09/06 02:34:53;;;;;;;12.30;5.80;;;;;;;;;;12744425;23;20009;-72
2023/09/06 02:39:54;;;;;;;10.38;4.90;;;;;;;;;;12743657;23;20383;-73
2023/09/06 02:44:54;;;;;;;8.55;5.25;;;;;;;;;;12696846;23;20029;-73
2023/09/06 02:49:55;;;;;;;9.48;5.53;;;;;;;;;;12743948;23;20001;-72
2023/09/06 02:54:57;;;;;;;10.85;5.63;;;;;;;;;;12742984;23;20002;-72
2023/09/06 02:59:57;;;;;;;10.43;5.70;;;;;;;;;;12696365;23;19990;-72
2023/09/06 03:05:03;;;;;;;9.00;5.75;;;;;;;;;;12744014;23;20302;-72
2023/09/06 03:10:04;;;;;;;8.43;5.57;;;;;;;;;;12744686;23;20005;-72
2023/09/06 03:15:08;;;;;;;7.03;5.22;;;;;;;;;;12741851;23;20001;-72
2023/09/06 03:20:19;;;;;;;10.93;5.97;;;;;;;;;;12724629;23;20291;-71
2023/09/06 03:25:20;;;;;;;9.57;5.55;;;;;;;;;;12743653;23;19997;-72
2023/09/06 03:30:20;;;;;;;10.73;5.85;;;;;;;;;;12723080;23;20006;-72
2023/09/06 03:35:22;;;;;;;9.90;5.55;;;;;;;;;;12745163;23;20033;-72
2023/09/06 03:40:25;;;;;;;8.23;5.60;;;;;;;;;;12743725;23;19996;-72
2023/09/06 03:45:26;;;;;;;11.38;6.70;;;;;;;;;;12744325;23;20334;-73
2023/09/06 03:50:29;;;;;;;14.20;6.53;;;;;;;;;;12743887;23;20351;-72
2023/09/06 03:55:32;;;;;;;9.13;5.63;;;;;;;;;;12742817;23;20048;-72
2023/09/06 04:00:33;;;;;;;7.85;6.10;;;;;;;;;;12743581;23;20280;-72
2023/09/06 04:05:34;;;;;;;12.73;6.45;;;;;;;;;;12743060;23;20225;-72
2023/09/06 04:10:38;;;;;;;9.10;5.80;;;;;;;;;;12744436;23;20110;-72
2023/09/06 04:15:40;;;;;;;9.15;6.03;;;;;;;;;;12742878;23;20093;-72
2023/09/06 04:20:46;;;;;;;9.13;5.13;;;;;;;;;;12745111;23;20017;-72
2023/09/06 04:25:46;;;;;;;7.72;5.25;;;;;;;;;;12743290;23;19993;-73
2023/09/06 04:30:46;;;;;;;7.95;5.60;;;;;;;;;;12741650;23;20001;-72
2023/09/06 04:35:47;;;;;;;7.30;5.28;;;;;;;;;;12740824;23;20336;-71
2023/09/06 04:40:48;;;;;;;8.68;5.00;;;;;;;;;;12741835;23;20216;-73
2023/09/06 04:45:49;;;;;;;9.90;5.38;;;;;;;;;;12718882;23;20230;-69
2023/09/06 04:50:50;;;;;;;12.75;5.20;;;;;;;;;;12742996;23;20001;-74
2023/09/06 04:55:52;;;;;;;8.73;5.55;;;;;;;;;;12740911;23;20069;-68
2023/09/06 05:00:52;;;;;;;9.85;5.22;;;;;;;;;;12739504;23;20013;-77
2023/09/06 05:05:52;;;;;;;19.50;4.97;;;;;;;;;;12741183;23;20011;-73
2023/09/06 05:10:52;;;;;;;8.83;5.00;;;;;;;;;;12745720;23;20710;-73
2023/09/06 05:15:59;;;;;;;8.18;4.85;;;;;;;;;;12741384;23;20219;-70
2023/09/06 05:21:04;;;;;;;9.27;4.43;;;;;;;;;;12746696;23;20379;-80
2023/09/06 05:26:04;;;;;;;12.77;5.40;;;;;;;;;;12727638;23;20004;-82
2023/09/06 05:31:06;;;;;;;11.73;5.90;;;;;;;;;;12743673;23;20081;-72
2023/09/06 05:36:08;;;;;;;12.88;7.35;;;;;;;;;;12743991;23;20310;-77
2023/09/06 05:41:09;;;;;;;10.63;5.70;;;;;;;;;;12745234;23;20048;-74
2023/09/06 05:46:09;;;;;;;9.98;5.55;;;;;;;;;;12744526;23;19998;-72
2023/09/06 05:51:09;;;;;;;7.78;5.22;;;;;;;;;;12745032;23;20001;-75
2023/09/06 05:56:09;;;;;;;8.98;4.75;;;;;;;;;;12742899;23;20017;-70
2023/09/06 06:01:12;;;;;;;12.03;5.53;;;;;;;;;;12742360;23;20006;-70
2023/09/06 06:06:16;;;;;;;9.13;5.60;;;;;;;;;;12745908;23;19996;-71
2023/09/06 06:11:16;;;;;;;11.45;5.65;;;;;;;;;;12745911;23;20001;-71
2023/09/06 06:16:16;;;;;;;9.85;5.80;;;;;;;;;;12741156;23;20009;-71
2023/09/06 06:21:17;;;;;;;10.55;4.82;;;;;;;;;;12744120;23;20098;-71
2023/09/06 06:26:20;;;;;;;8.13;4.43;;;;;;;;;;12742132;23;20029;-71
2023/09/06 06:31:20;;;;;;;10.50;5.00;;;;;;;;;;12742623;23;19994;-71
2023/09/06 06:36:21;;;;;;;7.72;4.30;;;;;;;;;;12722460;23;20021;-72
2023/09/06 06:41:25;;;;;;;7.93;4.60;;;;;;;;;;12722199;23;20134;-72
2023/09/06 06:46:27;;;;;;;7.93;5.43;;;;;;;;;;12744590;23;20229;-70
2023/09/06 06:51:35;;;;;;;9.50;4.78;;;;;;;;;;12743885;23;20228;-70
2023/09/06 06:56:36;;;;;;;7.95;5.43;;;;;;;;;;12743826;23;20041;-73
2023/09/06 07:01:36;;;;;;;8.32;5.82;;;;;;;;;;12744146;23;20280;-70
2023/09/06 07:06:37;;;;;;;9.07;5.00;;;;;;;;;;12721066;23;20009;-69
2023/09/06 07:11:37;;;;;;;9.40;5.07;;;;;;;;;;12740157;23;20025;-69
2023/09/06 07:16:39;;;;;;;12.32;5.32;;;;;;;;;;12736064;23;20005;-69
2023/09/06 07:21:40;;;;;;;9.80;5.10;;;;;;;;;;12739883;23;20006;-69
2023/09/06 07:26:41;;;;;;;19.42;5.47;;;;;;;;;;12718165;23;20295;-68
2023/09/06 07:31:41;;;;;;;13.65;5.90;;;;;;;;;;12740299;23;20187;-70
2023/09/06 07:36:41;;;;;;;9.93;4.45;;;;;;;;;;12741584;23;20009;-69
2023/09/06 07:41:41;;;;;;;9.85;4.13;;;;;;;;;;12744320;23;19998;-68
2023/09/06 07:46:44;;;;;;;11.27;5.10;;;;;;;;;;12743984;23;20009;-69
2023/09/06 07:51:44;;;;;;;9.60;4.28;;;;;;;;;;12742636;23;20060;-70
2023/09/06 07:56:47;;;;;;;9.48;4.60;;;;;;;;;;12733623;23;20017;-69
2023/09/06 08:01:47;;;;;;;7.68;3.63;;;;;;;;;;12743559;23;20056;-68
2023/09/06 08:06:48;;;;;;;3.95;2.88;;;;;;;;;;12742513;23;20263;-70
2023/09/06 08:11:48;;;;;;;9.67;3.33;;;;;;;;;;12744303;23;19986;-70
2023/09/06 08:16:48;;;;;;;7.70;3.40;;;;;;;;;;12737411;23;20248;-70
2023/09/06 08:21:49;;;;;;;6.30;3.20;;;;;;;;;;12742482;23;20302;-70
2023/09/06 08:26:49;;;;;;;6.13;3.72;;;;;;;;;;12742652;23;20021;-70
2023/09/06 08:31:49;;;;;;;4.25;2.97;;;;;;;;;;12743021;23;20041;-70
2023/09/06 08:36:51;;;;;;;6.20;3.60;;;;;;;;;;12743526;23;20000;-70
2023/09/06 08:41:53;;;;;;;4.60;3.70;;;;;;;;;;12744227;23;19993;-70
2023/09/06 08:46:54;;;;;;;7.50;3.78;;;;;;;;;;12745825;23;20500;-70
2023/09/06 08:51:55;;;;;;;9.50;4.45;;;;;;;;;;12746223;23;20311;-70
2023/09/06 08:56:56;;;;;;;7.65;3.47;;;;;;;;;;12697996;23;20021;-69
2023/09/06 09:01:57;;;;;;;9.05;4.10;;;;;;;;;;12746047;23;19986;-69
2023/09/06 09:06:58;;;;;;;10.05;3.35;;;;;;;;;;12746936;23;20049;-69
2023/09/06 09:11:59;;;;;;;6.72;3.53;;;;;;;;;;12724053;23;20531;-69
2023/09/06 09:16:59;;;;;;;11.00;4.50;;;;;;;;;;12739700;23;20010;-69
2023/09/06 09:21:59;;;;;;;7.70;3.43;;;;;;;;;;12746302;23;20006;-68
2023/09/06 09:27:00;;;;;;;6.65;3.33;;;;;;;;;;12743753;23;20060;-68
2023/09/06 09:32:03;;;;;;;7.27;4.23;;;;;;;;;;12696295;23;20215;-68
2023/09/06 09:37:05;;;;;;;5.72;3.80;;;;;;;;;;12721294;23;20212;-68
2023/09/06 09:42:08;;;;;;;9.55;4.80;;;;;;;;;;12744168;23;19990;-68
2023/09/06 09:47:13;;;;;;;6.90;3.92;;;;;;;;;;12746013;23;20049;-68
2023/09/06 09:52:14;;;;;;;9.85;5.03;;;;;;;;;;12744952;23;20002;-69
2023/09/06 09:57:15;;;;;;;7.70;5.07;;;;;;;;;;12745591;23;20025;-69
2023/09/06 10:02:16;;;;;;;9.98;3.83;;;;;;;;;;12723464;23;20010;-68
2023/09/06 10:07:17;;;;;;;6.85;4.13;;;;;;;;;;12745911;23;20001;-69
2023/09/06 10:12:18;;;;;;;7.03;4.60;;;;;;;;;;12745067;23;20180;-68
2023/09/06 10:17:19;;;;;;;6.07;4.80;;;;;;;;;;12737743;23;20048;-69
2023/09/06 10:22:19;;;;;;;8.02;4.53;;;;;;;;;;12745161;23;20069;-68
2023/09/06 10:27:20;;;;;;;13.63;5.35;;;;;;;;;;12745374;23;20291;-69
2023/09/06 10:32:23;;;;;;;10.35;4.50;;;;;;;;;;12722732;23;20006;-70
2023/09/06 10:37:43;;;;;;;9.68;4.80;;;;;;;;;;12744773;23;19998;-68
2023/09/06 10:42:45;;;;;;;7.72;5.05;;;;;;;;;;12744865;23;19989;-68
2023/09/06 10:47:45;;;;;;;8.77;4.72;;;;;;;;;;12723271;23;20070;-68
2023/09/06 10:52:53;;;;;;;6.37;4.60;;;;;;;;;;12697229;23;20049;-69
2023/09/06 10:57:56;;;;;;;13.52;5.15;;;;;;;;;;12724200;23;20022;-69
2023/09/06 11:03:17;;;;;;;8.77;4.95;;;;;;;;;;12744515;23;19990;-68
2023/09/06 11:08:24;;;;;;;8.25;5.15;;;;;;;;;;12744277;23;20001;-68
2023/09/06 11:13:26;;;;;;;;;;;;;;;;;;12745075;23;19997;-69
2023/09/06 11:18:27;;;;;;;8.38;4.63;;;;;;;;;;12731167;23;19905;-68
2023/09/06 11:23:28;;;;;;;12.15;5.93;;;;;;;;;;12744027;23;20005;-69
2023/09/06 11:28:29;;;;;;;9.13;5.10;;;;;;;;;;12743757;23;20060;-68
2023/09/06 11:33:30;;;;;;;11.05;5.15;;;;;;;;;;12744188;23;19993;-68
2023/09/06 11:38:33;;;;;;;7.50;5.40;;;;;;;;;;12744815;23;20068;-69
2023/09/06 11:43:33;;;;;;;7.40;5.15;;;;;;;;;;12697014;23;20044;-69
2023/09/06 11:48:35;;;;;;;9.27;4.85;;;;;;;;;;12742904;23;20008;-69
2023/09/06 11:53:45;;;;;;;12.13;5.25;;;;;;;;;;12721013;23;20010;-67
2023/09/06 11:58:49;;;;;;;7.20;5.05;;;;;;;;;;12744503;23;20024;-73
2023/09/06 12:03:53;;;;;;;9.15;5.18;;;;;;;;;;12695808;23;20014;-72
2023/09/06 12:08:54;;;;;;;9.13;5.55;;;;;;;;;;12740736;23;20211;-76
2023/09/06 12:13:56;;;;;;;12.85;5.38;;;;;;;;;;12717489;23;20169;-74
2023/09/06 12:18:56;;;;;;;10.02;5.32;;;;;;;;;;12730716;23;20056;-77
2023/09/06 12:23:58;;;;;;;8.77;5.20;;;;;;;;;;12748030;23;20302;-77
2023/09/06 12:28:58;;;;;;;6.43;5.07;;;;;;;;;;12749024;23;19989;-86
2023/09/06 12:33:58;;;;;;;16.53;4.80;;;;;;;;;;12748164;23;19990;-77
2023/09/06 12:38:58;;;;;;;9.65;4.80;;;;;;;;;;12746497;23;20311;-78
2023/09/06 12:43:59;;;;;;;7.53;4.78;;;;;;;;;;12747977;23;19993;-80
2023/09/06 12:48:59;;;;;;;8.32;4.78;;;;;;;;;;12731633;23;20208;-78
2023/09/06 12:53:59;;;;;;;7.22;4.85;;;;;;;;;;12746034;23;20063;-76
2023/09/06 12:58:59;;;;;;;9.07;4.13;;;;;;;;;;12745630;23;20227;-72
2023/09/06 13:04:00;;;;;;;6.65;4.43;;;;;;;;;;12745939;23;20214;-68
2023/09/06 13:09:00;;;;;;;9.65;4.70;;;;;;;;;;12744967;23;20008;-69
2023/09/06 13:14:00;;;;;;;9.80;4.50;;;;;;;;;;12745290;23;20005;-69
2023/09/06 13:19:01;;;;;;;12.85;5.60;;;;;;;;;;12730708;23;20312;-74
2023/09/06 13:24:01;;;;;;;15.40;5.68;;;;;;;;;;12745031;23;19997;-76
2023/09/06 13:29:03;;;;;;;10.82;5.47;;;;;;;;;;12749373;23;20325;-75
2023/09/06 13:34:03;;;;;;;10.90;5.65;;;;;;;;;;12745575;23;20204;-77
2023/09/06 13:39:04;;;;;;;12.93;6.30;;;;;;;;;;12749634;23;20005;-71
2023/09/06 13:44:04;;;;;;;8.60;5.68;;;;;;;;;;12745263;23;20236;-68
2023/09/06 13:49:07;;;;;;;10.25;5.85;;;;;;;;;;12746102;23;20249;-79
2023/09/06 13:54:07;;;;;;;11.68;6.50;;;;;;;;;;12726461;23;20024;-73
2023/09/06 13:59:08;;;;;;;13.48;6.32;;;;;;;;;;12747793;23;20251;-74
2023/09/06 14:04:08;;;;;;;10.75;5.75;;;;;;;;;;12745415;23;19994;-74
2023/09/06 14:09:10;;;;;;;9.30;5.70;;;;;;;;;;12748229;23;19993;-75
2023/09/06 14:14:10;;;;;;;12.98;5.63;;;;;;;;;;12747155;23;19989;-81
2023/09/06 14:19:11;;;;;;;11.85;6.63;;;;;;;;;;12703319;23;20010;-69
2023/09/06 14:24:12;;;;;;;9.50;5.70;;;;;;;;;;12747747;23;20287;-79
2023/09/06 14:29:13;;;;;;;11.15;6.05;;;;;;;;;;12747114;23;20011;-73
2023/09/06 14:34:15;;;;;;;10.48;5.53;;;;;;;;;;12744755;23;20318;-73
2023/09/06 14:39:15;;;;;;;9.43;5.95;;;;;;;;;;12745670;23;20021;-74
2023/09/06 14:44:17;;;;;;;13.27;6.00;;;;;;;;;;12745385;23;19997;-72
2023/09/06 14:49:19;;;;;;;9.00;5.30;;;;;;;;;;12743930;23;20291;-74
2023/09/06 14:54:19;;;;;;;10.82;6.38;;;;;;;;;;12745917;23;20057;-76
2023/09/06 14:59:19;;;;;;;10.95;6.03;;;;;;;;;;12744905;23;20010;-70
2023/09/06 15:04:19;;;;;;;11.88;6.22;;;;;;;;;;12743765;23;19997;-71
2023/09/06 15:09:20;;;;;;;13.70;6.30;;;;;;;;;;12744130;23;20286;-70
2023/09/06 15:14:20;;;;;;;14.65;6.35;;;;;;;;;;12743555;23;19993;-71
2023/09/06 15:19:21;;;;;;;9.18;5.80;;;;;;;;;;12727622;23;20472;-71
2023/09/06 15:24:21;;;;;;;12.57;6.82;;;;;;;;;;12743744;23;20051;-71
2023/09/06 15:29:44;;;;;;;9.55;6.65;;;;;;;;;;12742289;23;20417;-71
2023/09/06 15:34:45;;;;;;;11.50;6.72;;;;;;;;;;12720151;23;20518;-71
2023/09/06 15:39:45;;;;;;;13.90;6.85;;;;;;;;;;12739742;23;20051;-71
2023/09/06 15:44:45;;;;;;;14.65;6.35;;;;;;;;;;12694589;23;20025;-71
2023/09/06 15:49:47;;;;;;;15.32;7.10;;;;;;;;;;12696815;23;20044;-71
2023/09/06 15:54:47;;;;;;;11.43;6.78;;;;;;;;;;12742753;23;20039;-70
2023/09/06 15:59:49;;;;;;;11.93;6.60;;;;;;;;;;12742962;23;19993;-71
2023/09/06 16:04:49;;;;;;;12.75;7.45;;;;;;;;;;12742871;23;19998;-71
2023/09/06 16:09:49;;;;;;;11.95;6.25;;;;;;;;;;12743011;23;19997;-72
2023/09/06 16:14:52;;;;;;;11.90;6.97;;;;;;;;;;12696037;23;20061;-70
2023/09/06 16:19:52;;;;;;;9.95;7.25;;;;;;;;;;12724602;23;20049;-71
2023/09/06 16:24:53;;;;;;;13.73;7.20;;;;;;;;;;12742999;23;19998;-71
2023/09/06 16:29:53;;;;;;;12.70;7.50;;;;;;;;;;12720945;23;20244;-71
2023/09/06 16:34:53;;;;;;;15.73;7.03;;;;;;;;;;12721060;23;20191;-71
2023/09/06 16:39:53;;;;;;;16.92;7.03;;;;;;;;;;12743552;23;20204;-71
2023/09/06 16:44:54;;;;;;;17.27;8.07;;;;;;;;;;12742952;23;19993;-71
2023/09/06 16:49:54;;;;;;;13.80;7.43;;;;;;;;;;12743355;23;20065;-71
2023/09/06 16:54:55;;;;;;;13.37;7.30;;;;;;;;;;12742525;23;20021;-72
2023/09/06 16:59:56;;;;;;;13.65;7.22;;;;;;;;;;12743061;23;20017;-71
2023/09/06 17:04:56;;;;;;;14.15;7.60;;;;;;;;;;12745990;23;19994;-71
2023/09/06 17:09:57;;;;;;;13.05;7.88;;;;;;;;;;12746511;23;20505;-71
2023/09/06 17:15:05;;;;;;;11.90;8.43;;;;;;;;;;12745788;23;20000;-70
2023/09/06 17:20:05;;;;;;;12.93;7.45;;;;;;;;;;12699995;23;20005;-70
2023/09/06 17:25:08;;;;;;;14.00;7.53;;;;;;;;;;12745812;23;20013;-70
2023/09/06 17:30:09;;;;;;;16.23;7.97;;;;;;;;;;12746515;23;20009;-72
2023/09/06 17:35:11;;;;;;;13.80;7.70;;;;;;;;;;12746282;23;20051;-71
2023/09/06 17:40:11;;;;;;;12.90;7.10;;;;;;;;;;12745577;23;20000;-70
2023/09/06 17:45:12;;;;;;;14.13;7.70;;;;;;;;;;12746579;23;20275;-71
2023/09/06 17:50:17;;;;;;;15.70;7.32;;;;;;;;;;12745675;23;19998;-70
2023/09/06 17:55:19;;;;;;;13.82;7.13;;;;;;;;;;12745429;23;20076;-70
2023/09/06 18:00:24;;;;;;;10.63;7.45;;;;;;;;;;12745962;23;19989;-70
2023/09/06 18:05:24;;;;;;;11.07;7.13;;;;;;;;;;12742248;23;20004;-71
2023/09/06 18:10:24;;;;;;;17.33;7.82;;;;;;;;;;12746920;23;19989;-71
2023/09/06 18:15:25;;;;;;;13.43;7.70;;;;;;;;;;12745046;23;20194;-71
2023/09/06 18:20:25;;;;;;;13.90;7.38;;;;;;;;;;12745547;23;20048;-70
2023/09/06 18:25:25;;;;;;;19.10;7.80;;;;;;;;;;12744467;23;19997;-70
2023/09/06 18:30:26;;;;;;;14.73;7.38;;;;;;;;;;12745824;23;20418;-72
2023/09/06 18:35:27;;;;;;;14.45;8.48;;;;;;;;;;12744934;23;20032;-70
2023/09/06 18:40:27;;;;;;;16.67;7.97;;;;;;;;;;12745109;23;20203;-71
2023/09/06 18:45:30;;;;;;;13.23;7.70;;;;;;;;;;12744993;23;20003;-70
2023/09/06 18:50:31;;;;;;;16.38;7.97;;;;;;;;;;12744682;23;20299;-70
2023/09/06 18:55:32;;;;;;;17.02;8.57;;;;;;;;;;12744608;23;20256;-71
2023/09/06 19:00:33;;;;;;;11.80;6.95;;;;;;;;;;12745023;23;20002;-71
2023/09/06 19:05:36;;;;;;;16.45;7.47;;;;;;;;;;12744009;23;20005;-70
2023/09/06 19:10:36;;;;;;;18.95;7.95;;;;;;;;;;12744757;23;20004;-70
2023/09/06 19:15:47;;;;;;;13.32;9.13;;;;;;;;;;12697853;23;20013;-70
2023/09/06 19:20:47;;;;;;;14.15;7.85;;;;;;;;;;12744683;23;20001;-70
2023/09/06 19:25:54;;;;;;;15.40;7.77;;;;;;;;;;12743762;23;20056;-70
2023/09/06 19:30:55;;;;;;;14.63;9.07;;;;;;;;;;12744433;23;20495;-70
2023/09/06 19:35:55;;;;;;;9.77;7.18;;;;;;;;;;12744333;23;20196;-69
2023/09/06 19:40:57;;;;;;;11.65;7.95;;;;;;;;;;12741431;23;19997;-73
2023/09/06 19:45:57;;;;;;;11.95;7.25;;;;;;;;;;12699363;23;20009;-83
2023/09/06 19:50:57;;;;;;;12.60;7.17;;;;;;;;;;12731410;23;20009;-78
2023/09/06 19:55:58;;;;;;;11.52;7.28;;;;;;;;;;12749244;23;20040;-85
2023/09/06 20:00:59;;;;;;;14.33;6.93;;;;;;;;;;12730981;23;20331;-86
2023/09/06 20:06:00;;;;;;;13.43;7.90;;;;;;;;;;12699569;23;20009;-84
2023/09/06 20:11:04;;;;;;;17.10;8.95;;;;;;;;;;12741670;23;20272;-77
2023/09/06 20:16:05;;;;;;;17.02;9.75;;;;;;;;;;12744701;23;20264;-79
2023/09/06 20:21:05;;;;;;;11.70;7.80;;;;;;;;;;12745664;23;20006;-78
2023/09/06 20:26:06;;;;;;;15.38;7.80;;;;;;;;;;12696521;23;20478;-75
2023/09/06 20:31:07;;;;;;;10.10;7.20;;;;;;;;;;12742745;23;20296;-76
2023/09/06 20:36:08;;;;;;;12.98;7.47;;;;;;;;;;12696847;23;20092;-76
2023/09/06 20:41:08;;;;;;;13.97;8.30;;;;;;;;;;12723966;23;20032;-76
2023/09/06 20:46:08;;;;;;;15.00;8.53;;;;;;;;;;12724624;23;20043;-75
2023/09/06 20:51:13;;;;;;;13.20;8.47;;;;;;;;;;12747333;23;20530;-74
2023/09/06 20:56:13;;;;;;;14.10;7.68;;;;;;;;;;12745901;23;20527;-75
2023/09/06 21:01:14;;;;;;;12.57;7.93;;;;;;;;;;12746138;23;19993;-73
2023/09/06 21:06:15;;;;;;;12.65;8.93;;;;;;;;;;12746022;23;20028;-74
2023/09/06 21:11:15;;;;;;;18.40;8.68;;;;;;;;;;12745773;23;20258;-73
2023/09/06 21:16:15;;;;;;;17.93;9.57;;;;;;;;;;12741761;23;20036;-75
2023/09/06 21:21:16;;;;;;;19.23;11.00;;;;;;;;;;12699315;23;20006;-74
2023/09/06 21:26:16;;;;;;;14.15;10.40;;;;;;;;;;12744875;23;19998;-74
2023/09/06 21:31:16;;;;;;;22.60;10.43;;;;;;;;;;12745557;23;20001;-73
2023/09/06 21:36:16;;;;;;;20.73;11.10;;;;;;;;;;12745377;23;20039;-69
2023/09/06 21:41:17;;;;;;;17.05;11.38;;;;;;;;;;12757123;23;20185;-69
2023/09/06 21:46:17;;;;;;;22.40;11.30;;;;;;;;;;12757620;23;20001;-68
2023/09/06 21:51:18;;;;;;;16.57;11.70;;;;;;;;;;12757791;23;20302;-68
2023/09/06 21:56:19;;;;;;;24.27;13.93;;;;;;;;;;12756952;23;20029;-68
2023/09/06 22:01:19;;;;;;;16.35;10.63;;;;;;;;;;12757046;23;20088;-68
2023/09/06 22:06:19;;;;;;;20.03;12.53;;;;;;;;;;12757418;23;19996;-68
2023/09/06 22:11:20;;;;;;;20.30;11.20;;;;;;;;;;12757337;23;20001;-68
2023/09/06 22:16:20;;;;;;;21.88;12.05;;;;;;;;;;12734336;23;20006;-68
2023/09/06 22:21:20;;;;;;;17.50;11.40;;;;;;;;;;12756886;23;19996;-68
2023/09/06 22:26:20;;;;;;;15.83;10.57;;;;;;;;;;12757146;23;20429;-68
2023/09/06 22:31:26;;;;;;;18.77;11.25;;;;;;;;;;12756756;23;20005;-68
2023/09/06 22:36:27;;;;;;;16.73;10.13;;;;;;;;;;12756768;23;20174;-68
2023/09/06 22:41:27;;;;;;;14.73;9.48;;;;;;;;;;12756533;23;20044;-68
2023/09/06 22:46:28;;;;;;;16.00;10.45;;;;;;;;;;12756420;23;19993;-68
2023/09/06 22:51:28;;;;;;;17.10;10.05;;;;;;;;;;12756700;23;20225;-68
2023/09/06 22:56:28;;;;;;;15.70;9.75;;;;;;;;;;12755849;23;20024;-68
2023/09/06 23:01:28;;;;;;;19.90;10.43;;;;;;;;;;12755882;23;20187;-70
2023/09/06 23:06:29;;;;;;;13.73;10.47;;;;;;;;;;12756459;23;20057;-70
2023/09/06 23:11:34;;;;;;;14.55;9.70;;;;;;;;;;12756204;23;19997;-70
2023/09/06 23:16:35;;;;;;;17.20;9.68;;;;;;;;;;12749553;23;20346;-70
2023/09/06 23:21:38;;;;;;;13.05;8.85;;;;;;;;;;12756054;23;19994;-70
2023/09/06 23:26:39;;;;;;;14.07;9.43;;;;;;;;;;12729522;23;20108;-68
2023/09/06 23:31:43;;;;;;;15.90;9.20;;;;;;;;;;12755667;23;20172;-69
2023/09/06 23:36:43;;;;;;;11.55;8.75;;;;;;;;;;12755446;23;20012;-68
2023/09/06 23:41:43;;;;;;;14.07;9.55;;;;;;;;;;12755634;23;20016;-69
2023/09/06 23:46:44;;;;;;;12.93;8.95;;;;;;;;;;12755662;23;20000;-69
2023/09/06 23:51:44;;;;;;;15.60;10.43;;;;;;;;;;12755597;23;20495;-69
2023/09/06 23:56:45;;;;;;;16.35;9.57;;;;;;;;;;12755204;23;20128;-69
